sensor_id;sensor_type;location;lat;lon;timestamp;P1;durP1;ratioP1;P2;durP2;ratioP2
15216;SDS011;7711;46.634;14.318;2022-11-15T00:01:08;45.87;;;31.53;;
15216;SDS011;7711;46.634;14.318;2022-11-15T00:03:39;44.60;;;29.10;;
15216;SDS011;7711;46.634;14.318;2022-11-15T00:06:06;43.70;;;29.73;;
15216;SDS011;7711;46.634;14.318;2022-11-15T00:08:42;44.00;;;30.03;;
15216;SDS011;7711;46.634;14.318;2022-11-15T00:11:10;45.43;;;30.17;;
15216;SDS011;7711;46.634;14.318;2022-11-15T00:13:38;44.73;;;28.63;;
15216;SDS011;7711;46.634;14.318;2022-11-15T00:16:06;44.43;;;28.77;;
15216;SDS011;7711;46.634;14.318;2022-11-15T00:18:35;43.47;;;30.20;;
15216;SDS011;7711;46.634;14.318;2022-11-15T00:21:04;42.83;;;28.57;;
15216;SDS011;7711;46.634;14.318;2022-11-15T00:23:33;45.63;;;30.47;;
15216;SDS011;7711;46.634;14.318;2022-11-15T00:26:01;46.87;;;31.60;;
15216;SDS011;7711;46.634;14.318;2022-11-15T00:28:28;40.37;;;28.83;;
15216;SDS011;7711;46.634;14.318;2022-11-15T00:31:01;46.97;;;30.50;;
15216;SDS011;7711;46.634;14.318;2022-11-15T00:33:31;40.30;;;28.97;;
15216;SDS011;7711;46.634;14.318;2022-11-15T00:36:03;44.57;;;29.70;;
15216;SDS011;7711;46.634;14.318;2022-11-15T00:38:31;42.13;;;28.47;;
15216;SDS011;7711;46.634;14.318;2022-11-15T00:41:00;43.40;;;29.73;;
15216;SDS011;7711;46.634;14.318;2022-11-15T00:43:27;42.57;;;29.07;;
15216;SDS011;7711;46.634;14.318;2022-11-15T00:45:55;43.10;;;29.30;;
15216;SDS011;7711;46.634;14.318;2022-11-15T00:48:22;44.73;;;31.33;;
15216;SDS011;7711;46.634;14.318;2022-11-15T00:50:52;44.13;;;30.17;;
15216;SDS011;7711;46.634;14.318;2022-11-15T00:53:19;45.27;;;29.83;;
15216;SDS011;7711;46.634;14.318;2022-11-15T00:55:47;38.27;;;27.67;;
15216;SDS011;7711;46.634;14.318;2022-11-15T00:58:15;43.43;;;28.53;;
15216;SDS011;7711;46.634;14.318;2022-11-15T01:00:42;44.13;;;30.20;;
15216;SDS011;7711;46.634;14.318;2022-11-15T01:03:09;42.80;;;28.53;;
15216;SDS011;7711;46.634;14.318;2022-11-15T01:05:39;41.57;;;28.73;;
15216;SDS011;7711;46.634;14.318;2022-11-15T01:08:10;39.87;;;28.00;;
15216;SDS011;7711;46.634;14.318;2022-11-15T01:10:41;42.30;;;27.87;;
15216;SDS011;7711;46.634;14.318;2022-11-15T01:13:08;43.17;;;28.50;;
15216;SDS011;7711;46.634;14.318;2022-11-15T01:15:38;36.30;;;26.00;;
15216;SDS011;7711;46.634;14.318;2022-11-15T01:18:08;38.80;;;27.10;;
15216;SDS011;7711;46.634;14.318;2022-11-15T01:20:42;38.17;;;28.07;;
15216;SDS011;7711;46.634;14.318;2022-11-15T01:23:13;44.50;;;28.33;;
15216;SDS011;7711;46.634;14.318;2022-11-15T01:25:40;39.60;;;28.53;;
15216;SDS011;7711;46.634;14.318;2022-11-15T01:28:07;42.80;;;29.63;;
15216;SDS011;7711;46.634;14.318;2022-11-15T01:30:35;40.70;;;28.03;;
15216;SDS011;7711;46.634;14.318;2022-11-15T01:33:02;41.70;;;27.97;;
15216;SDS011;7711;46.634;14.318;2022-11-15T01:35:29;41.97;;;29.17;;
15216;SDS011;7711;46.634;14.318;2022-11-15T01:37:57;43.53;;;28.27;;
15216;SDS011;7711;46.634;14.318;2022-11-15T01:40:25;43.07;;;28.50;;
15216;SDS011;7711;46.634;14.318;2022-11-15T01:42:52;44.93;;;29.30;;
15216;SDS011;7711;46.634;14.318;2022-11-15T01:45:21;40.30;;;27.80;;
15216;SDS011;7711;46.634;14.318;2022-11-15T01:47:48;36.30;;;27.00;;
15216;SDS011;7711;46.634;14.318;2022-11-15T01:50:20;37.00;;;26.40;;
15216;SDS011;7711;46.634;14.318;2022-11-15T01:52:50;38.00;;;27.10;;
15216;SDS011;7711;46.634;14.318;2022-11-15T01:55:20;38.70;;;26.97;;
15216;SDS011;7711;46.634;14.318;2022-11-15T01:57:53;39.23;;;26.83;;
15216;SDS011;7711;46.634;14.318;2022-11-15T02:00:23;43.17;;;26.97;;
15216;SDS011;7711;46.634;14.318;2022-11-15T02:02:50;37.33;;;26.33;;
15216;SDS011;7711;46.634;14.318;2022-11-15T02:05:20;41.13;;;27.67;;
15216;SDS011;7711;46.634;14.318;2022-11-15T02:07:47;38.20;;;26.73;;
15216;SDS011;7711;46.634;14.318;2022-11-15T02:10:17;40.30;;;26.10;;
15216;SDS011;7711;46.634;14.318;2022-11-15T02:12:46;38.30;;;26.77;;
15216;SDS011;7711;46.634;14.318;2022-11-15T02:15:16;41.17;;;26.17;;
15216;SDS011;7711;46.634;14.318;2022-11-15T02:17:48;38.03;;;26.40;;
15216;SDS011;7711;46.634;14.318;2022-11-15T02:26:25;35.17;;;24.47;;
15216;SDS011;7711;46.634;14.318;2022-11-15T02:29:13;36.33;;;26.07;;
15216;SDS011;7711;46.634;14.318;2022-11-15T02:31:55;37.60;;;25.43;;
15216;SDS011;7711;46.634;14.318;2022-11-15T02:34:31;37.17;;;25.53;;
15216;SDS011;7711;46.634;14.318;2022-11-15T02:37:07;37.63;;;26.90;;
15216;SDS011;7711;46.634;14.318;2022-11-15T02:39:42;34.23;;;24.60;;
15216;SDS011;7711;46.634;14.318;2022-11-15T02:42:17;36.97;;;25.77;;
15216;SDS011;7711;46.634;14.318;2022-11-15T02:45:09;35.90;;;25.20;;
15216;SDS011;7711;46.634;14.318;2022-11-15T02:47:43;39.37;;;27.57;;
15216;SDS011;7711;46.634;14.318;2022-11-15T02:50:16;38.03;;;26.30;;
15216;SDS011;7711;46.634;14.318;2022-11-15T02:52:47;37.20;;;26.23;;
15216;SDS011;7711;46.634;14.318;2022-11-15T02:55:26;37.97;;;25.97;;
15216;SDS011;7711;46.634;14.318;2022-11-15T02:58:06;35.53;;;24.73;;
15216;SDS011;7711;46.634;14.318;2022-11-15T03:00:52;34.10;;;24.63;;
15216;SDS011;7711;46.634;14.318;2022-11-15T03:06:19;32.80;;;22.80;;
15216;SDS011;7711;46.634;14.318;2022-11-15T03:08:55;33.77;;;23.90;;
15216;SDS011;7711;46.634;14.318;2022-11-15T03:11:29;30.87;;;22.10;;
15216;SDS011;7711;46.634;14.318;2022-11-15T03:14:06;27.13;;;20.07;;
15216;SDS011;7711;46.634;14.318;2022-11-15T03:16:41;30.23;;;20.30;;
15216;SDS011;7711;46.634;14.318;2022-11-15T03:19:17;29.57;;;20.13;;
15216;SDS011;7711;46.634;14.318;2022-11-15T03:21:49;25.70;;;19.50;;
15216;SDS011;7711;46.634;14.318;2022-11-15T03:24:18;27.90;;;20.53;;
15216;SDS011;7711;46.634;14.318;2022-11-15T03:26:48;30.60;;;20.83;;
15216;SDS011;7711;46.634;14.318;2022-11-15T03:29:17;32.57;;;22.43;;
15216;SDS011;7711;46.634;14.318;2022-11-15T03:31:51;31.70;;;22.23;;
15216;SDS011;7711;46.634;14.318;2022-11-15T03:34:25;32.77;;;22.03;;
15216;SDS011;7711;46.634;14.318;2022-11-15T03:36:56;29.87;;;21.17;;
15216;SDS011;7711;46.634;14.318;2022-11-15T03:39:23;29.53;;;21.33;;
15216;SDS011;7711;46.634;14.318;2022-11-15T03:41:56;29.97;;;21.17;;
15216;SDS011;7711;46.634;14.318;2022-11-15T03:44:34;30.17;;;21.87;;
15216;SDS011;7711;46.634;14.318;2022-11-15T03:47:06;29.57;;;21.13;;
15216;SDS011;7711;46.634;14.318;2022-11-15T03:49:42;31.07;;;22.43;;
15216;SDS011;7711;46.634;14.318;2022-11-15T03:52:13;33.50;;;22.00;;
15216;SDS011;7711;46.634;14.318;2022-11-15T03:54:50;34.37;;;22.90;;
15216;SDS011;7711;46.634;14.318;2022-11-15T03:57:18;32.13;;;22.93;;
15216;SDS011;7711;46.634;14.318;2022-11-15T03:59:46;30.97;;;22.17;;
15216;SDS011;7711;46.634;14.318;2022-11-15T04:02:13;32.07;;;21.73;;
15216;SDS011;7711;46.634;14.318;2022-11-15T04:04:43;31.73;;;22.63;;
15216;SDS011;7711;46.634;14.318;2022-11-15T04:07:11;27.93;;;20.27;;
15216;SDS011;7711;46.634;14.318;2022-11-15T04:09:39;26.63;;;19.70;;
15216;SDS011;7711;46.634;14.318;2022-11-15T04:12:19;28.57;;;19.87;;
15216;SDS011;7711;46.634;14.318;2022-11-15T04:14:56;25.50;;;19.43;;
15216;SDS011;7711;46.634;14.318;2022-11-15T04:17:34;25.10;;;19.40;;
15216;SDS011;7711;46.634;14.318;2022-11-15T04:20:08;23.93;;;17.80;;
15216;SDS011;7711;46.634;14.318;2022-11-15T04:22:56;25.70;;;18.30;;
15216;SDS011;7711;46.634;14.318;2022-11-15T04:25:44;27.10;;;17.93;;
15216;SDS011;7711;46.634;14.318;2022-11-15T04:28:12;22.03;;;16.67;;
15216;SDS011;7711;46.634;14.318;2022-11-15T04:30:41;22.47;;;16.97;;
15216;SDS011;7711;46.634;14.318;2022-11-15T04:33:10;23.57;;;16.30;;
15216;SDS011;7711;46.634;14.318;2022-11-15T04:35:39;25.90;;;17.57;;
15216;SDS011;7711;46.634;14.318;2022-11-15T04:38:07;28.77;;;18.00;;
15216;SDS011;7711;46.634;14.318;2022-11-15T04:40:35;24.57;;;17.60;;
15216;SDS011;7711;46.634;14.318;2022-11-15T04:43:02;23.73;;;18.13;;
15216;SDS011;7711;46.634;14.318;2022-11-15T04:45:30;23.83;;;17.20;;
15216;SDS011;7711;46.634;14.318;2022-11-15T04:47:57;20.90;;;16.50;;
15216;SDS011;7711;46.634;14.318;2022-11-15T04:50:24;20.87;;;15.40;;
15216;SDS011;7711;46.634;14.318;2022-11-15T04:52:53;23.27;;;16.23;;
15216;SDS011;7711;46.634;14.318;2022-11-15T04:55:21;21.40;;;15.57;;
15216;SDS011;7711;46.634;14.318;2022-11-15T04:57:56;21.70;;;15.77;;
15216;SDS011;7711;46.634;14.318;2022-11-15T05:00:24;21.73;;;16.83;;
15216;SDS011;7711;46.634;14.318;2022-11-15T05:02:54;20.20;;;15.73;;
15216;SDS011;7711;46.634;14.318;2022-11-15T05:05:38;19.60;;;15.43;;
15216;SDS011;7711;46.634;14.318;2022-11-15T05:08:10;22.83;;;17.37;;
15216;SDS011;7711;46.634;14.318;2022-11-15T05:10:38;23.13;;;17.23;;
15216;SDS011;7711;46.634;14.318;2022-11-15T05:13:07;21.90;;;16.47;;
15216;SDS011;7711;46.634;14.318;2022-11-15T05:15:34;25.30;;;18.17;;
15216;SDS011;7711;46.634;14.318;2022-11-15T05:18:02;21.57;;;17.23;;
15216;SDS011;7711;46.634;14.318;2022-11-15T05:20:29;19.83;;;16.13;;
15216;SDS011;7711;46.634;14.318;2022-11-15T05:22:58;21.43;;;16.07;;
15216;SDS011;7711;46.634;14.318;2022-11-15T05:25:27;22.87;;;17.43;;
15216;SDS011;7711;46.634;14.318;2022-11-15T05:27:54;24.10;;;17.20;;
15216;SDS011;7711;46.634;14.318;2022-11-15T05:30:21;24.03;;;18.10;;
15216;SDS011;7711;46.634;14.318;2022-11-15T05:32:50;22.83;;;18.77;;
15216;SDS011;7711;46.634;14.318;2022-11-15T05:35:19;24.80;;;18.33;;
15216;SDS011;7711;46.634;14.318;2022-11-15T05:37:54;24.33;;;18.53;;
15216;SDS011;7711;46.634;14.318;2022-11-15T05:40:21;27.77;;;19.87;;
15216;SDS011;7711;46.634;14.318;2022-11-15T05:42:50;26.83;;;19.80;;
15216;SDS011;7711;46.634;14.318;2022-11-15T05:45:17;27.20;;;20.07;;
15216;SDS011;7711;46.634;14.318;2022-11-15T05:47:44;33.50;;;21.60;;
15216;SDS011;7711;46.634;14.318;2022-11-15T05:50:13;29.03;;;20.63;;
15216;SDS011;7711;46.634;14.318;2022-11-15T05:52:46;31.17;;;22.50;;
15216;SDS011;7711;46.634;14.318;2022-11-15T05:55:14;29.10;;;21.13;;
15216;SDS011;7711;46.634;14.318;2022-11-15T05:57:41;26.30;;;20.47;;
15216;SDS011;7711;46.634;14.318;2022-11-15T06:00:13;29.03;;;20.83;;
15216;SDS011;7711;46.634;14.318;2022-11-15T06:02:40;29.03;;;20.33;;
15216;SDS011;7711;46.634;14.318;2022-11-15T06:05:08;31.10;;;23.03;;
15216;SDS011;7711;46.634;14.318;2022-11-15T06:07:35;32.27;;;22.63;;
15216;SDS011;7711;46.634;14.318;2022-11-15T06:10:03;32.87;;;22.80;;
15216;SDS011;7711;46.634;14.318;2022-11-15T06:12:31;32.53;;;22.87;;
15216;SDS011;7711;46.634;14.318;2022-11-15T06:14:58;32.40;;;22.53;;
15216;SDS011;7711;46.634;14.318;2022-11-15T06:17:27;34.77;;;22.63;;
15216;SDS011;7711;46.634;14.318;2022-11-15T06:19:55;34.00;;;21.90;;
15216;SDS011;7711;46.634;14.318;2022-11-15T06:22:22;31.40;;;23.40;;
15216;SDS011;7711;46.634;14.318;2022-11-15T06:24:49;34.87;;;23.07;;
15216;SDS011;7711;46.634;14.318;2022-11-15T06:27:16;33.40;;;24.27;;
15216;SDS011;7711;46.634;14.318;2022-11-15T06:29:45;36.53;;;25.80;;
15216;SDS011;7711;46.634;14.318;2022-11-15T06:32:14;36.07;;;25.20;;
15216;SDS011;7711;46.634;14.318;2022-11-15T06:34:42;36.07;;;25.80;;
15216;SDS011;7711;46.634;14.318;2022-11-15T06:37:10;36.03;;;25.67;;
15216;SDS011;7711;46.634;14.318;2022-11-15T06:39:38;34.00;;;23.40;;
15216;SDS011;7711;46.634;14.318;2022-11-15T06:42:07;31.33;;;22.70;;
15216;SDS011;7711;46.634;14.318;2022-11-15T06:44:35;33.03;;;23.00;;
15216;SDS011;7711;46.634;14.318;2022-11-15T06:47:02;30.27;;;20.70;;
15216;SDS011;7711;46.634;14.318;2022-11-15T06:49:29;34.17;;;23.07;;
15216;SDS011;7711;46.634;14.318;2022-11-15T06:51:58;20.00;;;15.63;;
15216;SDS011;7711;46.634;14.318;2022-11-15T06:54:26;20.53;;;14.17;;
15216;SDS011;7711;46.634;14.318;2022-11-15T06:56:53;20.53;;;16.03;;
15216;SDS011;7711;46.634;14.318;2022-11-15T06:59:20;19.80;;;14.33;;
15216;SDS011;7711;46.634;14.318;2022-11-15T07:01:52;18.23;;;13.40;;
15216;SDS011;7711;46.634;14.318;2022-11-15T07:04:34;16.80;;;12.47;;
15216;SDS011;7711;46.634;14.318;2022-11-15T07:07:04;14.53;;;11.73;;
15216;SDS011;7711;46.634;14.318;2022-11-15T07:09:32;13.33;;;11.23;;
15216;SDS011;7711;46.634;14.318;2022-11-15T07:11:59;12.53;;;10.60;;
15216;SDS011;7711;46.634;14.318;2022-11-15T07:14:26;13.40;;;10.40;;
15216;SDS011;7711;46.634;14.318;2022-11-15T07:16:53;11.63;;;9.60;;
15216;SDS011;7711;46.634;14.318;2022-11-15T07:19:20;10.50;;;9.40;;
15216;SDS011;7711;46.634;14.318;2022-11-15T07:21:47;11.50;;;9.07;;
15216;SDS011;7711;46.634;14.318;2022-11-15T07:24:16;10.43;;;8.40;;
15216;SDS011;7711;46.634;14.318;2022-11-15T07:26:43;9.53;;;8.27;;
15216;SDS011;7711;46.634;14.318;2022-11-15T07:29:10;11.03;;;8.57;;
15216;SDS011;7711;46.634;14.318;2022-11-15T07:31:37;10.40;;;8.53;;
15216;SDS011;7711;46.634;14.318;2022-11-15T07:34:05;12.00;;;8.30;;
15216;SDS011;7711;46.634;14.318;2022-11-15T07:36:33;12.20;;;8.60;;
15216;SDS011;7711;46.634;14.318;2022-11-15T07:39:00;11.13;;;8.37;;
15216;SDS011;7711;46.634;14.318;2022-11-15T07:41:29;11.90;;;9.47;;
15216;SDS011;7711;46.634;14.318;2022-11-15T07:43:56;9.47;;;8.10;;
15216;SDS011;7711;46.634;14.318;2022-11-15T07:46:23;11.23;;;8.10;;
15216;SDS011;7711;46.634;14.318;2022-11-15T07:48:52;8.90;;;7.80;;
15216;SDS011;7711;46.634;14.318;2022-11-15T07:51:19;10.83;;;8.17;;
15216;SDS011;7711;46.634;14.318;2022-11-15T07:53:46;9.53;;;8.27;;
15216;SDS011;7711;46.634;14.318;2022-11-15T07:56:13;9.80;;;7.47;;
15216;SDS011;7711;46.634;14.318;2022-11-15T07:58:42;10.43;;;7.97;;
15216;SDS011;7711;46.634;14.318;2022-11-15T08:01:12;8.80;;;7.20;;
15216;SDS011;7711;46.634;14.318;2022-11-15T08:03:41;9.87;;;8.37;;
15216;SDS011;7711;46.634;14.318;2022-11-15T08:06:08;11.93;;;7.17;;
15216;SDS011;7711;46.634;14.318;2022-11-15T08:08:35;9.67;;;7.77;;
15216;SDS011;7711;46.634;14.318;2022-11-15T08:11:02;8.27;;;6.73;;
15216;SDS011;7711;46.634;14.318;2022-11-15T08:13:30;7.70;;;6.90;;
15216;SDS011;7711;46.634;14.318;2022-11-15T08:15:59;7.73;;;6.93;;
15216;SDS011;7711;46.634;14.318;2022-11-15T08:18:30;8.63;;;6.90;;
15216;SDS011;7711;46.634;14.318;2022-11-15T08:20:58;8.80;;;6.90;;
15216;SDS011;7711;46.634;14.318;2022-11-15T08:23:26;9.37;;;6.60;;
15216;SDS011;7711;46.634;14.318;2022-11-15T08:26:01;7.13;;;6.20;;
15216;SDS011;7711;46.634;14.318;2022-11-15T08:28:29;9.07;;;6.20;;
15216;SDS011;7711;46.634;14.318;2022-11-15T08:30:58;5.97;;;5.37;;
15216;SDS011;7711;46.634;14.318;2022-11-15T08:33:26;6.87;;;5.67;;
15216;SDS011;7711;46.634;14.318;2022-11-15T08:35:55;6.73;;;5.77;;
15216;SDS011;7711;46.634;14.318;2022-11-15T08:38:25;6.37;;;5.77;;
15216;SDS011;7711;46.634;14.318;2022-11-15T08:40:54;6.40;;;5.80;;
15216;SDS011;7711;46.634;14.318;2022-11-15T08:43:27;9.33;;;7.40;;
15216;SDS011;7711;46.634;14.318;2022-11-15T08:45:55;7.93;;;7.23;;
15216;SDS011;7711;46.634;14.318;2022-11-15T08:48:24;9.80;;;8.10;;
15216;SDS011;7711;46.634;14.318;2022-11-15T08:50:53;10.37;;;7.83;;
15216;SDS011;7711;46.634;14.318;2022-11-15T08:53:20;10.17;;;8.20;;
15216;SDS011;7711;46.634;14.318;2022-11-15T08:55:48;12.20;;;8.80;;
15216;SDS011;7711;46.634;14.318;2022-11-15T08:58:15;9.47;;;8.47;;
15216;SDS011;7711;46.634;14.318;2022-11-15T09:00:42;13.47;;;10.03;;
15216;SDS011;7711;46.634;14.318;2022-11-15T09:03:09;9.83;;;8.33;;
15216;SDS011;7711;46.634;14.318;2022-11-15T09:05:38;9.57;;;8.03;;
15216;SDS011;7711;46.634;14.318;2022-11-15T09:08:05;9.40;;;7.87;;
15216;SDS011;7711;46.634;14.318;2022-11-15T09:10:32;10.90;;;8.57;;
15216;SDS011;7711;46.634;14.318;2022-11-15T09:12:59;9.17;;;7.83;;
15216;SDS011;7711;46.634;14.318;2022-11-15T09:15:27;8.90;;;8.00;;
15216;SDS011;7711;46.634;14.318;2022-11-15T09:17:54;8.33;;;7.40;;
15216;SDS011;7711;46.634;14.318;2022-11-15T09:20:24;8.73;;;7.37;;
15216;SDS011;7711;46.634;14.318;2022-11-15T09:22:57;11.13;;;7.60;;
15216;SDS011;7711;46.634;14.318;2022-11-15T09:25:26;7.97;;;7.20;;
15216;SDS011;7711;46.634;14.318;2022-11-15T09:27:53;8.13;;;7.33;;
15216;SDS011;7711;46.634;14.318;2022-11-15T09:30:20;11.23;;;7.83;;
15216;SDS011;7711;46.634;14.318;2022-11-15T09:32:47;9.10;;;7.00;;
15216;SDS011;7711;46.634;14.318;2022-11-15T09:35:14;10.13;;;7.63;;
15216;SDS011;7711;46.634;14.318;2022-11-15T09:37:45;9.67;;;7.80;;
15216;SDS011;7711;46.634;14.318;2022-11-15T09:40:14;7.87;;;6.80;;
15216;SDS011;7711;46.634;14.318;2022-11-15T09:45:49;8.60;;;7.53;;
15216;SDS011;7711;46.634;14.318;2022-11-15T09:48:35;12.53;;;8.33;;
15216;SDS011;7711;46.634;14.318;2022-11-15T09:51:18;9.53;;;8.33;;
15216;SDS011;7711;46.634;14.318;2022-11-15T09:53:55;9.87;;;7.97;;
15216;SDS011;7711;46.634;14.318;2022-11-15T09:56:35;10.00;;;7.27;;
15216;SDS011;7711;46.634;14.318;2022-11-15T09:59:12;9.73;;;8.70;;
15216;SDS011;7711;46.634;14.318;2022-11-15T10:01:49;8.40;;;7.60;;
15216;SDS011;7711;46.634;14.318;2022-11-15T10:04:23;8.67;;;7.77;;
15216;SDS011;7711;46.634;14.318;2022-11-15T10:06:53;8.30;;;7.47;;
15216;SDS011;7711;46.634;14.318;2022-11-15T10:09:25;10.00;;;7.50;;
15216;SDS011;7711;46.634;14.318;2022-11-15T10:12:02;11.00;;;7.70;;
15216;SDS011;7711;46.634;14.318;2022-11-15T10:14:30;11.67;;;7.97;;
15216;SDS011;7711;46.634;14.318;2022-11-15T10:17:11;10.73;;;7.40;;
15216;SDS011;7711;46.634;14.318;2022-11-15T10:20:02;6.53;;;5.63;;
15216;SDS011;7711;46.634;14.318;2022-11-15T10:22:38;7.23;;;6.43;;
15216;SDS011;7711;46.634;14.318;2022-11-15T10:25:12;7.13;;;6.40;;
15216;SDS011;7711;46.634;14.318;2022-11-15T10:27:47;8.67;;;7.33;;
15216;SDS011;7711;46.634;14.318;2022-11-15T10:30:19;7.53;;;6.80;;
15216;SDS011;7711;46.634;14.318;2022-11-15T10:32:47;11.53;;;8.07;;
15216;SDS011;7711;46.634;14.318;2022-11-15T10:35:16;12.00;;;8.07;;
15216;SDS011;7711;46.634;14.318;2022-11-15T10:37:49;8.97;;;6.30;;
15216;SDS011;7711;46.634;14.318;2022-11-15T10:40:18;6.97;;;6.27;;
15216;SDS011;7711;46.634;14.318;2022-11-15T10:42:49;7.47;;;5.27;;
15216;SDS011;7711;46.634;14.318;2022-11-15T10:45:32;8.13;;;7.27;;
15216;SDS011;7711;46.634;14.318;2022-11-15T10:48:18;8.00;;;7.20;;
15216;SDS011;7711;46.634;14.318;2022-11-15T10:50:50;5.10;;;4.00;;
15216;SDS011;7711;46.634;14.318;2022-11-15T10:53:23;8.80;;;6.73;;
15216;SDS011;7711;46.634;14.318;2022-11-15T10:55:57;8.03;;;6.70;;
15216;SDS011;7711;46.634;14.318;2022-11-15T10:58:32;8.83;;;6.53;;
15216;SDS011;7711;46.634;14.318;2022-11-15T11:01:08;7.83;;;7.03;;
15216;SDS011;7711;46.634;14.318;2022-11-15T11:03:37;7.37;;;6.40;;
15216;SDS011;7711;46.634;14.318;2022-11-15T11:06:07;6.30;;;5.70;;
15216;SDS011;7711;46.634;14.318;2022-11-15T11:08:37;6.80;;;6.10;;
15216;SDS011;7711;46.634;14.318;2022-11-15T11:11:06;6.60;;;5.83;;
15216;SDS011;7711;46.634;14.318;2022-11-15T11:13:36;8.57;;;6.40;;
15216;SDS011;7711;46.634;14.318;2022-11-15T11:16:10;6.70;;;5.90;;
15216;SDS011;7711;46.634;14.318;2022-11-15T11:19:02;6.57;;;5.43;;
15216;SDS011;7711;46.634;14.318;2022-11-15T11:21:42;7.57;;;6.00;;
15216;SDS011;7711;46.634;14.318;2022-11-15T11:24:17;6.80;;;6.13;;
15216;SDS011;7711;46.634;14.318;2022-11-15T11:26:56;7.77;;;6.43;;
15216;SDS011;7711;46.634;14.318;2022-11-15T11:29:41;6.10;;;5.47;;
15216;SDS011;7711;46.634;14.318;2022-11-15T11:32:25;7.87;;;7.07;;
15216;SDS011;7711;46.634;14.318;2022-11-15T11:35:11;6.67;;;6.07;;
15216;SDS011;7711;46.634;14.318;2022-11-15T11:37:43;6.10;;;5.50;;
15216;SDS011;7711;46.634;14.318;2022-11-15T11:40:28;9.13;;;5.97;;
15216;SDS011;7711;46.634;14.318;2022-11-15T11:42:59;6.33;;;5.73;;
15216;SDS011;7711;46.634;14.318;2022-11-15T11:48:40;6.30;;;5.43;;
15216;SDS011;7711;46.634;14.318;2022-11-15T12:01:26;5.63;;;5.00;;
15216;SDS011;7711;46.634;14.318;2022-11-15T12:03:59;6.00;;;5.33;;
15216;SDS011;7711;46.634;14.318;2022-11-15T12:06:36;5.70;;;5.10;;
15216;SDS011;7711;46.634;14.318;2022-11-15T12:09:14;5.67;;;5.17;;
15216;SDS011;7711;46.634;14.318;2022-11-15T12:11:47;6.67;;;5.03;;
15216;SDS011;7711;46.634;14.318;2022-11-15T12:14:22;6.00;;;5.40;;
15216;SDS011;7711;46.634;14.318;2022-11-15T12:16:56;6.53;;;5.03;;
15216;SDS011;7711;46.634;14.318;2022-11-15T12:19:24;5.50;;;5.00;;
15216;SDS011;7711;46.634;14.318;2022-11-15T12:21:54;6.60;;;4.73;;
15216;SDS011;7711;46.634;14.318;2022-11-15T12:24:27;5.20;;;4.70;;
15216;SDS011;7711;46.634;14.318;2022-11-15T12:26:59;5.10;;;4.60;;
15216;SDS011;7711;46.634;14.318;2022-11-15T12:29:31;4.30;;;3.90;;
15216;SDS011;7711;46.634;14.318;2022-11-15T12:32:04;7.60;;;4.57;;
15216;SDS011;7711;46.634;14.318;2022-11-15T12:34:42;5.32;;;4.00;;
15216;SDS011;7711;46.634;14.318;2022-11-15T12:40:31;4.35;;;3.78;;
15216;SDS011;7711;46.634;14.318;2022-11-15T12:43:04;5.00;;;3.60;;
15216;SDS011;7711;46.634;14.318;2022-11-15T12:45:49;4.43;;;3.67;;
15216;SDS011;7711;46.634;14.318;2022-11-15T12:57:27;4.53;;;3.22;;
15216;SDS011;7711;46.634;14.318;2022-11-15T12:59:57;3.80;;;3.13;;
15216;SDS011;7711;46.634;14.318;2022-11-15T13:02:27;5.43;;;3.17;;
15216;SDS011;7711;46.634;14.318;2022-11-15T13:07:57;4.72;;;3.25;;
15216;SDS011;7711;46.634;14.318;2022-11-15T13:10:30;6.50;;;3.30;;
15216;SDS011;7711;46.634;14.318;2022-11-15T13:12:59;3.55;;;3.00;;
15216;SDS011;7711;46.634;14.318;2022-11-15T13:15:31;3.72;;;2.92;;
15216;SDS011;7711;46.634;14.318;2022-11-15T13:18:29;4.90;;;3.40;;
15216;SDS011;7711;46.634;14.318;2022-11-15T13:20:58;3.33;;;3.03;;
15216;SDS011;7711;46.634;14.318;2022-11-15T13:23:25;3.67;;;3.00;;
15216;SDS011;7711;46.634;14.318;2022-11-15T13:26:00;3.75;;;3.35;;
15216;SDS011;7711;46.634;14.318;2022-11-15T13:28:37;5.00;;;3.58;;
15216;SDS011;7711;46.634;14.318;2022-11-15T13:31:22;4.05;;;3.63;;
15216;SDS011;7711;46.634;14.318;2022-11-15T13:34:02;4.25;;;3.70;;
15216;SDS011;7711;46.634;14.318;2022-11-15T13:36:40;4.72;;;4.32;;
15216;SDS011;7711;46.634;14.318;2022-11-15T13:39:12;4.10;;;3.70;;
15216;SDS011;7711;46.634;14.318;2022-11-15T13:41:51;4.88;;;3.70;;
15216;SDS011;7711;46.634;14.318;2022-11-15T13:44:19;3.70;;;3.33;;
15216;SDS011;7711;46.634;14.318;2022-11-15T13:46:47;4.03;;;3.65;;
15216;SDS011;7711;46.634;14.318;2022-11-15T13:49:14;4.45;;;3.50;;
15216;SDS011;7711;46.634;14.318;2022-11-15T13:51:42;3.95;;;3.40;;
15216;SDS011;7711;46.634;14.318;2022-11-15T13:54:16;4.15;;;3.53;;
15216;SDS011;7711;46.634;14.318;2022-11-15T13:56:47;5.78;;;3.42;;
15216;SDS011;7711;46.634;14.318;2022-11-15T13:59:23;3.92;;;3.35;;
15216;SDS011;7711;46.634;14.318;2022-11-15T14:01:52;4.07;;;3.58;;
15216;SDS011;7711;46.634;14.318;2022-11-15T14:04:21;4.28;;;3.50;;
15216;SDS011;7711;46.634;14.318;2022-11-15T14:06:50;6.10;;;3.53;;
15216;SDS011;7711;46.634;14.318;2022-11-15T14:09:34;4.93;;;3.45;;
15216;SDS011;7711;46.634;14.318;2022-11-15T14:12:20;4.30;;;3.90;;
15216;SDS011;7711;46.634;14.318;2022-11-15T14:14:54;4.32;;;3.85;;
15216;SDS011;7711;46.634;14.318;2022-11-15T14:17:32;4.40;;;3.83;;
15216;SDS011;7711;46.634;14.318;2022-11-15T14:20:01;5.13;;;3.90;;
15216;SDS011;7711;46.634;14.318;2022-11-15T14:22:51;4.22;;;3.80;;
15216;SDS011;7711;46.634;14.318;2022-11-15T14:25:19;5.53;;;4.13;;
15216;SDS011;7711;46.634;14.318;2022-11-15T14:30:39;4.80;;;4.30;;
15216;SDS011;7711;46.634;14.318;2022-11-15T14:33:17;5.47;;;3.90;;
15216;SDS011;7711;46.634;14.318;2022-11-15T14:35:46;5.20;;;4.43;;
15216;SDS011;7711;46.634;14.318;2022-11-15T14:38:14;4.63;;;4.20;;
15216;SDS011;7711;46.634;14.318;2022-11-15T14:40:41;8.52;;;4.07;;
15216;SDS011;7711;46.634;14.318;2022-11-15T14:43:09;5.40;;;4.00;;
15216;SDS011;7711;46.634;14.318;2022-11-15T14:45:38;6.97;;;3.85;;
15216;SDS011;7711;46.634;14.318;2022-11-15T14:48:06;6.70;;;4.40;;
15216;SDS011;7711;46.634;14.318;2022-11-15T14:50:33;7.03;;;4.80;;
15216;SDS011;7711;46.634;14.318;2022-11-15T14:53:01;6.22;;;5.05;;
15216;SDS011;7711;46.634;14.318;2022-11-15T14:55:29;5.78;;;5.15;;
15216;SDS011;7711;46.634;14.318;2022-11-15T14:58:00;6.43;;;5.15;;
15216;SDS011;7711;46.634;14.318;2022-11-15T15:00:28;6.20;;;4.88;;
15216;SDS011;7711;46.634;14.318;2022-11-15T15:02:57;5.85;;;5.03;;
15216;SDS011;7711;46.634;14.318;2022-11-15T15:05:25;6.35;;;5.00;;
15216;SDS011;7711;46.634;14.318;2022-11-15T15:07:56;8.38;;;5.22;;
15216;SDS011;7711;46.634;14.318;2022-11-15T15:10:23;5.82;;;4.93;;
15216;SDS011;7711;46.634;14.318;2022-11-15T15:12:51;9.85;;;6.03;;
15216;SDS011;7711;46.634;14.318;2022-11-15T15:15:24;12.68;;;5.70;;
15216;SDS011;7711;46.634;14.318;2022-11-15T15:17:52;7.73;;;5.30;;
15216;SDS011;7711;46.634;14.318;2022-11-15T15:20:21;8.33;;;5.27;;
15216;SDS011;7711;46.634;14.318;2022-11-15T15:22:48;8.40;;;5.77;;
15216;SDS011;7711;46.634;14.318;2022-11-15T15:25:22;8.67;;;7.07;;
15216;SDS011;7711;46.634;14.318;2022-11-15T15:27:52;12.20;;;8.73;;
15216;SDS011;7711;46.634;14.318;2022-11-15T15:30:20;12.73;;;8.00;;
15216;SDS011;7711;46.634;14.318;2022-11-15T15:32:47;12.87;;;7.57;;
15216;SDS011;7711;46.634;14.318;2022-11-15T15:35:15;12.13;;;7.30;;
15216;SDS011;7711;46.634;14.318;2022-11-15T15:37:45;11.03;;;7.00;;
15216;SDS011;7711;46.634;14.318;2022-11-15T15:40:14;10.60;;;6.93;;